sensor_id;sensor_type;location;lat;lon;timestamp;temperature;humidity
9482;DHT22;4779;48.062;11.672;2023-05-10T00:01:24;14.40;99.90
9482;DHT22;4779;48.062;11.672;2023-05-10T00:03:51;14.40;99.90
9482;DHT22;4779;48.062;11.672;2023-05-10T00:06:18;14.40;99.90
9482;DHT22;4779;48.062;11.672;2023-05-10T00:08:46;14.30;99.90
9482;DHT22;4779;48.062;11.672;2023-05-10T00:11:13;14.40;99.90
9482;DHT22;4779;48.062;11.672;2023-05-10T00:13:40;14.50;99.90
9482;DHT22;4779;48.062;11.672;2023-05-10T00:16:07;14.50;99.90
9482;DHT22;4779;48.062;11.672;2023-05-10T00:18:34;14.50;99.90
9482;DHT22;4779;48.062;11.672;2023-05-10T00:21:01;14.50;99.90
9482;DHT22;4779;48.062;11.672;2023-05-10T00:23:27;14.40;99.90
9482;DHT22;4779;48.062;11.672;2023-05-10T00:25:56;14.40;99.90
9482;DHT22;4779;48.062;11.672;2023-05-10T00:28:23;14.40;99.90
9482;DHT22;4779;48.062;11.672;2023-05-10T00:30:50;14.50;99.90
9482;DHT22;4779;48.062;11.672;2023-05-10T00:33:17;14.50;99.90
9482;DHT22;4779;48.062;11.672;2023-05-10T00:35:44;14.50;99.90
9482;DHT22;4779;48.062;11.672;2023-05-10T00:38:10;14.50;99.90
9482;DHT22;4779;48.062;11.672;2023-05-10T00:40:37;14.40;99.90
9482;DHT22;4779;48.062;11.672;2023-05-10T00:45:44;14.40;99.90
9482;DHT22;4779;48.062;11.672;2023-05-10T00:48:11;14.40;99.90
9482;DHT22;4779;48.062;11.672;2023-05-10T00:50:38;14.40;99.90
9482;DHT22;4779;48.062;11.672;2023-05-10T00:53:05;14.40;99.90
9482;DHT22;4779;48.062;11.672;2023-05-10T00:55:32;14.30;99.90
9482;DHT22;4779;48.062;11.672;2023-05-10T00:57:59;14.30;99.90
9482;DHT22;4779;48.062;11.672;2023-05-10T01:00:27;14.20;99.90
9482;DHT22;4779;48.062;11.672;2023-05-10T01:02:56;14.30;99.90
9482;DHT22;4779;48.062;11.672;2023-05-10T01:05:23;14.40;99.90
9482;DHT22;4779;48.062;11.672;2023-05-10T01:07:50;14.50;99.90
9482;DHT22;4779;48.062;11.672;2023-05-10T01:10:17;14.50;99.90
9482;DHT22;4779;48.062;11.672;2023-05-10T01:12:46;14.50;99.90
9482;DHT22;4779;48.062;11.672;2023-05-10T01:15:14;14.60;99.90
9482;DHT22;4779;48.062;11.672;2023-05-10T01:17:44;14.40;99.90
9482;DHT22;4779;48.062;11.672;2023-05-10T01:20:14;14.30;99.90
9482;DHT22;4779;48.062;11.672;2023-05-10T01:23:20;14.20;99.90
9482;DHT22;4779;48.062;11.672;2023-05-10T01:26:28;14.20;99.90
9482;DHT22;4779;48.062;11.672;2023-05-10T01:29:24;14.30;99.90
9482;DHT22;4779;48.062;11.672;2023-05-10T01:32:06;14.20;99.90
9482;DHT22;4779;48.062;11.672;2023-05-10T01:34:39;14.20;99.90
9482;DHT22;4779;48.062;11.672;2023-05-10T01:37:13;14.10;99.90
9482;DHT22;4779;48.062;11.672;2023-05-10T01:39:45;14.10;99.90
9482;DHT22;4779;48.062;11.672;2023-05-10T01:42:17;14.10;99.90
9482;DHT22;4779;48.062;11.672;2023-05-10T01:45:00;14.20;99.90
9482;DHT22;4779;48.062;11.672;2023-05-10T01:47:35;14.20;99.90
9482;DHT22;4779;48.062;11.672;2023-05-10T01:50:06;14.20;99.90
9482;DHT22;4779;48.062;11.672;2023-05-10T01:52:38;14.20;99.90
9482;DHT22;4779;48.062;11.672;2023-05-10T01:55:10;14.20;99.90
9482;DHT22;4779;48.062;11.672;2023-05-10T01:57:38;14.30;99.90
9482;DHT22;4779;48.062;11.672;2023-05-10T02:00:08;14.20;99.90
9482;DHT22;4779;48.062;11.672;2023-05-10T02:02:39;14.30;99.90
9482;DHT22;4779;48.062;11.672;2023-05-10T02:05:08;14.30;99.90
9482;DHT22;4779;48.062;11.672;2023-05-10T02:07:36;14.20;99.90
9482;DHT22;4779;48.062;11.672;2023-05-10T02:10:04;14.10;99.90
9482;DHT22;4779;48.062;11.672;2023-05-10T02:12:35;14.10;99.90
9482;DHT22;4779;48.062;11.672;2023-05-10T02:15:05;14.00;99.90
9482;DHT22;4779;48.062;11.672;2023-05-10T02:17:34;13.90;99.90
9482;DHT22;4779;48.062;11.672;2023-05-10T02:20:04;14.00;99.90
9482;DHT22;4779;48.062;11.672;2023-05-10T02:22:35;13.90;99.90
9482;DHT22;4779;48.062;11.672;2023-05-10T02:25:04;13.90;99.90
9482;DHT22;4779;48.062;11.672;2023-05-10T02:27:31;14.00;99.90
9482;DHT22;4779;48.062;11.672;2023-05-10T02:29:58;14.00;99.90
9482;DHT22;4779;48.062;11.672;2023-05-10T02:32:26;14.10;99.90
9482;DHT22;4779;48.062;11.672;2023-05-10T02:34:54;14.10;99.90
9482;DHT22;4779;48.062;11.672;2023-05-10T02:37:24;14.10;99.90
9482;DHT22;4779;48.062;11.672;2023-05-10T02:39:54;14.10;99.90
9482;DHT22;4779;48.062;11.672;2023-05-10T02:42:24;14.20;99.90
9482;DHT22;4779;48.062;11.672;2023-05-10T02:44:54;14.20;99.90
9482;DHT22;4779;48.062;11.672;2023-05-10T02:47:23;14.20;99.90
9482;DHT22;4779;48.062;11.672;2023-05-10T02:49:50;14.20;99.90
9482;DHT22;4779;48.062;11.672;2023-05-10T02:52:21;14.10;99.90
9482;DHT22;4779;48.062;11.672;2023-05-10T02:54:54;14.10;99.90
9482;DHT22;4779;48.062;11.672;2023-05-10T02:57:26;14.10;99.90
9482;DHT22;4779;48.062;11.672;2023-05-10T02:59:53;14.00;99.90
9482;DHT22;4779;48.062;11.672;2023-05-10T03:02:20;14.00;99.90
9482;DHT22;4779;48.062;11.672;2023-05-10T03:04:47;13.90;99.90
9482;DHT22;4779;48.062;11.672;2023-05-10T03:07:15;13.90;99.90
9482;DHT22;4779;48.062;11.672;2023-05-10T03:09:42;13.90;99.90
9482;DHT22;4779;48.062;11.672;2023-05-10T03:12:15;13.90;99.90
9482;DHT22;4779;48.062;11.672;2023-05-10T03:14:57;13.80;99.90
9482;DHT22;4779;48.062;11.672;2023-05-10T03:17:30;13.80;99.90
9482;DHT22;4779;48.062;11.672;2023-05-10T03:20:04;13.80;99.90
9482;DHT22;4779;48.062;11.672;2023-05-10T03:22:37;13.80;99.90
9482;DHT22;4779;48.062;11.672;2023-05-10T03:25:06;13.80;99.90
9482;DHT22;4779;48.062;11.672;2023-05-10T03:27:37;13.70;99.90
9482;DHT22;4779;48.062;11.672;2023-05-10T03:30:08;13.70;99.90
9482;DHT22;4779;48.062;11.672;2023-05-10T03:32:36;13.70;99.90
9482;DHT22;4779;48.062;11.672;2023-05-10T03:35:06;13.70;99.90
9482;DHT22;4779;48.062;11.672;2023-05-10T03:37:34;13.70;99.90
9482;DHT22;4779;48.062;11.672;2023-05-10T03:40:01;13.70;99.90
9482;DHT22;4779;48.062;11.672;2023-05-10T03:42:28;13.60;99.90
9482;DHT22;4779;48.062;11.672;2023-05-10T03:44:56;13.50;99.90
9482;DHT22;4779;48.062;11.672;2023-05-10T03:47:23;13.40;99.90
9482;DHT22;4779;48.062;11.672;2023-05-10T03:49:50;13.40;99.90
9482;DHT22;4779;48.062;11.672;2023-05-10T03:52:17;13.50;99.90
9482;DHT22;4779;48.062;11.672;2023-05-10T03:54:44;13.50;99.90
9482;DHT22;4779;48.062;11.672;2023-05-10T03:57:11;13.50;99.90
9482;DHT22;4779;48.062;11.672;2023-05-10T03:59:38;13.50;99.90
9482;DHT22;4779;48.062;11.672;2023-05-10T04:02:06;13.50;99.90
9482;DHT22;4779;48.062;11.672;2023-05-10T04:04:33;13.50;99.90
9482;DHT22;4779;48.062;11.672;2023-05-10T04:07:00;13.50;99.90
9482;DHT22;4779;48.062;11.672;2023-05-10T04:09:27;13.50;99.90
9482;DHT22;4779;48.062;11.672;2023-05-10T04:11:53;13.60;99.90
9482;DHT22;4779;48.062;11.672;2023-05-10T04:14:20;13.50;99.90
9482;DHT22;4779;48.062;11.672;2023-05-10T04:16:47;13.50;99.90
9482;DHT22;4779;48.062;11.672;2023-05-10T04:19:15;13.50;99.90
9482;DHT22;4779;48.062;11.672;2023-05-10T04:21:42;13.50;99.90
9482;DHT22;4779;48.062;11.672;2023-05-10T04:24:09;13.50;99.90
9482;DHT22;4779;48.062;11.672;2023-05-10T04:26:36;13.50;99.90
9482;DHT22;4779;48.062;11.672;2023-05-10T04:29:03;13.50;99.90
9482;DHT22;4779;48.062;11.672;2023-05-10T04:31:30;13.50;99.90
9482;DHT22;4779;48.062;11.672;2023-05-10T04:33:56;13.50;99.90
9482;DHT22;4779;48.062;11.672;2023-05-10T04:36:25;13.50;99.90
9482;DHT22;4779;48.062;11.672;2023-05-10T04:38:51;13.50;99.90
9482;DHT22;4779;48.062;11.672;2023-05-10T04:41:18;13.50;99.90
9482;DHT22;4779;48.062;11.672;2023-05-10T04:43:46;13.50;99.90
9482;DHT22;4779;48.062;11.672;2023-05-10T04:46:14;13.50;99.90
9482;DHT22;4779;48.062;11.672;2023-05-10T04:48:41;13.50;99.90
9482;DHT22;4779;48.062;11.672;2023-05-10T04:51:08;13.50;99.90
9482;DHT22;4779;48.062;11.672;2023-05-10T04:53:36;13.50;99.90
9482;DHT22;4779;48.062;11.672;2023-05-10T04:56:03;13.50;99.90
9482;DHT22;4779;48.062;11.672;2023-05-10T04:58:30;13.40;99.90
9482;DHT22;4779;48.062;11.672;2023-05-10T05:00:59;13.30;99.90
9482;DHT22;4779;48.062;11.672;2023-05-10T05:03:31;13.30;99.90
9482;DHT22;4779;48.062;11.672;2023-05-10T05:05:58;13.30;99.90
9482;DHT22;4779;48.062;11.672;2023-05-10T05:08:25;13.40;99.90
9482;DHT22;4779;48.062;11.672;2023-05-10T05:10:53;13.30;99.90
9482;DHT22;4779;48.062;11.672;2023-05-10T05:13:20;13.20;99.90
9482;DHT22;4779;48.062;11.672;2023-05-10T05:15:47;13.20;99.90
9482;DHT22;4779;48.062;11.672;2023-05-10T05:18:13;13.20;99.90
9482;DHT22;4779;48.062;11.672;2023-05-10T05:20:40;13.20;99.90
9482;DHT22;4779;48.062;11.672;2023-05-10T05:23:07;13.20;99.90
9482;DHT22;4779;48.062;11.672;2023-05-10T05:25:34;13.30;99.90
9482;DHT22;4779;48.062;11.672;2023-05-10T05:28:02;13.20;99.90
9482;DHT22;4779;48.062;11.672;2023-05-10T05:30:29;13.30;99.90
9482;DHT22;4779;48.062;11.672;2023-05-10T05:32:56;13.20;99.90
9482;DHT22;4779;48.062;11.672;2023-05-10T05:35:23;13.20;99.90
9482;DHT22;4779;48.062;11.672;2023-05-10T05:37:50;13.20;99.90
9482;DHT22;4779;48.062;11.672;2023-05-10T05:40:17;13.20;99.90
9482;DHT22;4779;48.062;11.672;2023-05-10T05:42:44;13.20;99.90
9482;DHT22;4779;48.062;11.672;2023-05-10T05:45:12;13.20;99.90
9482;DHT22;4779;48.062;11.672;2023-05-10T05:47:39;13.10;99.90
9482;DHT22;4779;48.062;11.672;2023-05-10T05:50:07;13.00;99.90
9482;DHT22;4779;48.062;11.672;2023-05-10T05:52:34;13.00;99.90
9482;DHT22;4779;48.062;11.672;2023-05-10T05:55:01;13.00;99.90
9482;DHT22;4779;48.062;11.672;2023-05-10T05:57:28;13.00;99.90
9482;DHT22;4779;48.062;11.672;2023-05-10T05:59:55;12.90;99.90
9482;DHT22;4779;48.062;11.672;2023-05-10T06:02:23;12.90;99.90
9482;DHT22;4779;48.062;11.672;2023-05-10T06:04:50;12.80;99.90
9482;DHT22;4779;48.062;11.672;2023-05-10T06:07:17;12.70;99.90
9482;DHT22;4779;48.062;11.672;2023-05-10T06:09:44;12.60;99.90
9482;DHT22;4779;48.062;11.672;2023-05-10T06:12:11;12.50;99.90
9482;DHT22;4779;48.062;11.672;2023-05-10T06:14:38;12.50;99.90
9482;DHT22;4779;48.062;11.672;2023-05-10T06:17:05;12.50;99.90
9482;DHT22;4779;48.062;11.672;2023-05-10T06:19:33;12.60;99.90
9482;DHT22;4779;48.062;11.672;2023-05-10T06:22:02;12.70;99.90
9482;DHT22;4779;48.062;11.672;2023-05-10T06:24:29;12.80;99.90
9482;DHT22;4779;48.062;11.672;2023-05-10T06:26:55;12.90;99.90
9482;DHT22;4779;48.062;11.672;2023-05-10T06:29:25;12.90;99.90
9482;DHT22;4779;48.062;11.672;2023-05-10T06:31:52;13.00;99.90
9482;DHT22;4779;48.062;11.672;2023-05-10T06:34:19;13.20;99.90
9482;DHT22;4779;48.062;11.672;2023-05-10T06:36:48;13.30;99.90
9482;DHT22;4779;48.062;11.672;2023-05-10T06:39:15;13.30;99.90
9482;DHT22;4779;48.062;11.672;2023-05-10T06:41:42;13.40;99.90
9482;DHT22;4779;48.062;11.672;2023-05-10T06:44:09;13.60;99.90
9482;DHT22;4779;48.062;11.672;2023-05-10T06:46:36;13.70;99.90
9482;DHT22;4779;48.062;11.672;2023-05-10T06:49:03;13.70;99.90
9482;DHT22;4779;48.062;11.672;2023-05-10T06:51:30;13.80;99.90
9482;DHT22;4779;48.062;11.672;2023-05-10T06:53:58;13.80;99.90
9482;DHT22;4779;48.062;11.672;2023-05-10T06:56:25;13.90;99.90
9482;DHT22;4779;48.062;11.672;2023-05-10T06:58:52;14.00;99.90
9482;DHT22;4779;48.062;11.672;2023-05-10T07:01:19;14.10;99.90
9482;DHT22;4779;48.062;11.672;2023-05-10T07:03:46;14.10;99.90
9482;DHT22;4779;48.062;11.672;2023-05-10T07:06:13;14.10;99.90
9482;DHT22;4779;48.062;11.672;2023-05-10T07:08:39;14.10;99.90
9482;DHT22;4779;48.062;11.672;2023-05-10T07:11:08;14.30;99.90
9482;DHT22;4779;48.062;11.672;2023-05-10T07:13:35;14.50;99.90
9482;DHT22;4779;48.062;11.672;2023-05-10T07:16:04;14.40;99.90
9482;DHT22;4779;48.062;11.672;2023-05-10T07:18:32;14.40;99.90
9482;DHT22;4779;48.062;11.672;2023-05-10T07:20:59;14.50;99.90
9482;DHT22;4779;48.062;11.672;2023-05-10T07:23:26;14.60;99.90
9482;DHT22;4779;48.062;11.672;2023-05-10T07:25:53;14.70;99.90
9482;DHT22;4779;48.062;11.672;2023-05-10T07:28:21;14.80;99.90
9482;DHT22;4779;48.062;11.672;2023-05-10T07:30:48;15.00;99.90
9482;DHT22;4779;48.062;11.672;2023-05-10T07:33:15;15.10;99.90
9482;DHT22;4779;48.062;11.672;2023-05-10T07:35:43;15.10;99.90
9482;DHT22;4779;48.062;11.672;2023-05-10T07:38:10;15.00;99.90
9482;DHT22;4779;48.062;11.672;2023-05-10T07:40:38;15.20;99.90
9482;DHT22;4779;48.062;11.672;2023-05-10T07:43:05;15.30;99.90
9482;DHT22;4779;48.062;11.672;2023-05-10T07:45:33;15.20;99.90
9482;DHT22;4779;48.062;11.672;2023-05-10T07:48:01;15.20;99.90
9482;DHT22;4779;48.062;11.672;2023-05-10T07:50:30;15.10;99.90
9482;DHT22;4779;48.062;11.672;2023-05-10T07:52:57;15.10;99.90
9482;DHT22;4779;48.062;11.672;2023-05-10T07:55:24;15.10;99.90
9482;DHT22;4779;48.062;11.672;2023-05-10T07:57:51;15.30;99.90
9482;DHT22;4779;48.062;11.672;2023-05-10T08:00:19;15.50;99.90
9482;DHT22;4779;48.062;11.672;2023-05-10T08:02:48;15.80;99.90
9482;DHT22;4779;48.062;11.672;2023-05-10T08:05:15;15.80;99.90
9482;DHT22;4779;48.062;11.672;2023-05-10T08:07:42;15.90;99.90
9482;DHT22;4779;48.062;11.672;2023-05-10T08:10:09;16.00;99.90
9482;DHT22;4779;48.062;11.672;2023-05-10T08:12:37;16.10;99.90
9482;DHT22;4779;48.062;11.672;2023-05-10T08:15:05;16.00;99.90
9482;DHT22;4779;48.062;11.672;2023-05-10T08:17:32;15.90;99.90
9482;DHT22;4779;48.062;11.672;2023-05-10T08:20:01;16.00;99.90
9482;DHT22;4779;48.062;11.672;2023-05-10T08:22:28;16.30;99.90
9482;DHT22;4779;48.062;11.672;2023-05-10T08:24:54;16.30;99.90
9482;DHT22;4779;48.062;11.672;2023-05-10T08:27:21;16.20;99.90
9482;DHT22;4779;48.062;11.672;2023-05-10T08:29:48;15.90;99.90
9482;DHT22;4779;48.062;11.672;2023-05-10T08:32:15;15.80;99.90
9482;DHT22;4779;48.062;11.672;2023-05-10T08:34:42;15.80;99.90
9482;DHT22;4779;48.062;11.672;2023-05-10T08:37:10;15.90;99.90
9482;DHT22;4779;48.062;11.672;2023-05-10T08:39:38;16.00;99.90
9482;DHT22;4779;48.062;11.672;2023-05-10T08:42:06;16.30;99.90
9482;DHT22;4779;48.062;11.672;2023-05-10T08:44:35;16.50;99.90
9482;DHT22;4779;48.062;11.672;2023-05-10T08:47:05;16.70;99.90
9482;DHT22;4779;48.062;11.672;2023-05-10T08:49:33;16.80;99.90
9482;DHT22;4779;48.062;11.672;2023-05-10T08:52:02;16.50;99.90
9482;DHT22;4779;48.062;11.672;2023-05-10T08:54:33;16.20;99.90
9482;DHT22;4779;48.062;11.672;2023-05-10T08:57:00;16.00;99.90
9482;DHT22;4779;48.062;11.672;2023-05-10T08:59:27;15.80;99.90
9482;DHT22;4779;48.062;11.672;2023-05-10T09:01:56;15.70;99.90
9482;DHT22;4779;48.062;11.672;2023-05-10T09:04:24;15.50;99.90
9482;DHT22;4779;48.062;11.672;2023-05-10T09:06:51;15.30;99.90
9482;DHT22;4779;48.062;11.672;2023-05-10T09:09:19;15.00;99.90
9482;DHT22;4779;48.062;11.672;2023-05-10T09:11:48;14.80;99.90
9482;DHT22;4779;48.062;11.672;2023-05-10T09:14:15;14.70;99.90
9482;DHT22;4779;48.062;11.672;2023-05-10T09:16:43;14.60;99.90
9482;DHT22;4779;48.062;11.672;2023-05-10T09:19:10;14.40;99.90
9482;DHT22;4779;48.062;11.672;2023-05-10T09:21:37;14.30;99.90
9482;DHT22;4779;48.062;11.672;2023-05-10T09:24:08;14.40;99.90
9482;DHT22;4779;48.062;11.672;2023-05-10T09:26:46;14.30;99.90
9482;DHT22;4779;48.062;11.672;2023-05-10T09:29:15;14.50;99.90
9482;DHT22;4779;48.062;11.672;2023-05-10T09:31:47;14.70;99.90
9482;DHT22;4779;48.062;11.672;2023-05-10T09:34:17;14.80;99.90
9482;DHT22;4779;48.062;11.672;2023-05-10T09:36:55;15.00;99.90
9482;DHT22;4779;48.062;11.672;2023-05-10T09:39:30;15.00;99.90
9482;DHT22;4779;48.062;11.672;2023-05-10T09:41:58;15.00;99.90
9482;DHT22;4779;48.062;11.672;2023-05-10T09:44:27;14.90;99.90
9482;DHT22;4779;48.062;11.672;2023-05-10T09:46:54;14.80;99.90
9482;DHT22;4779;48.062;11.672;2023-05-10T09:49:21;14.70;99.90
9482;DHT22;4779;48.062;11.672;2023-05-10T09:52:00;14.70;99.90
9482;DHT22;4779;48.062;11.672;2023-05-10T09:54:27;14.90;99.90
9482;DHT22;4779;48.062;11.672;2023-05-10T09:56:54;15.10;99.90
9482;DHT22;4779;48.062;11.672;2023-05-10T09:59:21;15.20;99.90
9482;DHT22;4779;48.062;11.672;2023-05-10T10:01:52;15.40;99.90
9482;DHT22;4779;48.062;11.672;2023-05-10T10:04:20;15.60;99.90
9482;DHT22;4779;48.062;11.672;2023-05-10T10:06:47;15.90;99.90
9482;DHT22;4779;48.062;11.672;2023-05-10T10:09:25;16.30;99.90
9482;DHT22;4779;48.062;11.672;2023-05-10T10:11:52;17.00;99.90
9482;DHT22;4779;48.062;11.672;2023-05-10T10:14:19;17.10;99.90
9482;DHT22;4779;48.062;11.672;2023-05-10T10:16:46;17.00;99.90
9482;DHT22;4779;48.062;11.672;2023-05-10T10:19:15;17.00;99.90
9482;DHT22;4779;48.062;11.672;2023-05-10T10:21:42;17.10;99.90
9482;DHT22;4779;48.062;11.672;2023-05-10T10:24:08;17.10;99.90
9482;DHT22;4779;48.062;11.672;2023-05-10T10:26:35;17.10;99.90
9482;DHT22;4779;48.062;11.672;2023-05-10T10:29:16;17.20;99.90
9482;DHT22;4779;48.062;11.672;2023-05-10T10:31:47;17.20;99.90
9482;DHT22;4779;48.062;11.672;2023-05-10T10:34:25;17.20;99.90
9482;DHT22;4779;48.062;11.672;2023-05-10T10:36:54;17.10;99.90
9482;DHT22;4779;48.062;11.672;2023-05-10T10:39:22;17.00;99.90
9482;DHT22;4779;48.062;11.672;2023-05-10T10:41:51;16.90;99.90
9482;DHT22;4779;48.062;11.672;2023-05-10T10:44:38;16.90;99.90
9482;DHT22;4779;48.062;11.672;2023-05-10T10:47:09;17.00;99.90
9482;DHT22;4779;48.062;11.672;2023-05-10T10:49:50;17.10;99.90
9482;DHT22;4779;48.062;11.672;2023-05-10T10:52:23;17.30;99.90
9482;DHT22;4779;48.062;11.672;2023-05-10T10:54:53;17.30;99.90
9482;DHT22;4779;48.062;11.672;2023-05-10T10:57:21;17.70;99.90
9482;DHT22;4779;48.062;11.672;2023-05-10T10:59:48;17.90;99.90
9482;DHT22;4779;48.062;11.672;2023-05-10T11:02:34;18.00;99.90
9482;DHT22;4779;48.062;11.672;2023-05-10T11:05:33;18.20;99.90
9482;DHT22;4779;48.062;11.672;2023-05-10T11:08:06;18.30;99.90
9482;DHT22;4779;48.062;11.672;2023-05-10T11:10:33;18.20;99.90
9482;DHT22;4779;48.062;11.672;2023-05-10T11:13:05;18.10;99.90
9482;DHT22;4779;48.062;11.672;2023-05-10T11:15:43;18.00;99.90
9482;DHT22;4779;48.062;11.672;2023-05-10T11:18:25;17.70;99.90
9482;DHT22;4779;48.062;11.672;2023-05-10T11:21:03;17.50;99.90
9482;DHT22;4779;48.062;11.672;2023-05-10T11:23:52;17.20;99.90
9482;DHT22;4779;48.062;11.672;2023-05-10T11:26:34;16.90;99.90
9482;DHT22;4779;48.062;11.672;2023-05-10T11:29:10;16.50;99.90
9482;DHT22;4779;48.062;11.672;2023-05-10T11:31:48;16.00;99.90
9482;DHT22;4779;48.062;11.672;2023-05-10T11:34:31;15.60;99.90
9482;DHT22;4779;48.062;11.672;2023-05-10T11:37:05;15.20;99.90
9482;DHT22;4779;48.062;11.672;2023-05-10T11:39:32;14.90;99.90
9482;DHT22;4779;48.062;11.672;2023-05-10T11:41:59;14.70;99.90
9482;DHT22;4779;48.062;11.672;2023-05-10T11:44:29;14.70;99.90
9482;DHT22;4779;48.062;11.672;2023-05-10T11:46:58;14.70;99.90
9482;DHT22;4779;48.062;11.672;2023-05-10T11:54:57;14.50;99.90
9482;DHT22;4779;48.062;11.672;2023-05-10T11:57:26;14.60;99.90
9482;DHT22;4779;48.062;11.672;2023-05-10T11:59:57;14.50;99.90
9482;DHT22;4779;48.062;11.672;2023-05-10T12:02:24;14.30;99.90
9482;DHT22;4779;48.062;11.672;2023-05-10T12:04:52;14.20;99.90
9482;DHT22;4779;48.062;11.672;2023-05-10T12:07:19;14.20;99.90
9482;DHT22;4779;48.062;11.672;2023-05-10T12:10:08;14.20;99.90
9482;DHT22;4779;48.062;11.672;2023-05-10T12:12:38;13.90;99.90
9482;DHT22;4779;48.062;11.672;2023-05-10T12:15:16;13.70;99.90
9482;DHT22;4779;48.062;11.672;2023-05-10T12:17:44;13.50;99.90
9482;DHT22;4779;48.062;11.672;2023-05-10T12:20:16;13.50;99.90
9482;DHT22;4779;48.062;11.672;2023-05-10T12:22:48;13.50;99.90
9482;DHT22;4779;48.062;11.672;2023-05-10T12:25:46;13.60;99.90
9482;DHT22;4779;48.062;11.672;2023-05-10T12:28:15;13.60;99.90
9482;DHT22;4779;48.062;11.672;2023-05-10T12:31:03;13.60;99.90
9482;DHT22;4779;48.062;11.672;2023-05-10T12:33:54;13.50;99.90
9482;DHT22;4779;48.062;11.672;2023-05-10T12:36:24;13.60;99.90
9482;DHT22;4779;48.062;11.672;2023-05-10T12:39:45;13.50;99.90
9482;DHT22;4779;48.062;11.672;2023-05-10T12:42:20;13.40;99.90
9482;DHT22;4779;48.062;11.672;2023-05-10T12:48:03;13.40;99.90
9482;DHT22;4779;48.062;11.672;2023-05-10T12:50:36;13.30;99.90
9482;DHT22;4779;48.062;11.672;2023-05-10T12:53:07;13.30;99.90
9482;DHT22;4779;48.062;11.672;2023-05-10T12:55:34;13.30;99.90
9482;DHT22;4779;48.062;11.672;2023-05-10T12:58:03;13.20;99.90
9482;DHT22;4779;48.062;11.672;2023-05-10T13:00:32;13.40;99.90
9482;DHT22;4779;48.062;11.672;2023-05-10T13:03:23;13.50;99.90
9482;DHT22;4779;48.062;11.672;2023-05-10T13:05:50;13.70;99.90
9482;DHT22;4779;48.062;11.672;2023-05-10T13:08:38;13.70;99.90
9482;DHT22;4779;48.062;11.672;2023-05-10T13:11:08;13.70;99.90
9482;DHT22;4779;48.062;11.672;2023-05-10T13:13:37;13.70;99.90
9482;DHT22;4779;48.062;11.672;2023-05-10T13:16:04;13.70;99.90
9482;DHT22;4779;48.062;11.672;2023-05-10T13:18:31;13.70;99.90
9482;DHT22;4779;48.062;11.672;2023-05-10T13:20:58;13.70;99.90
9482;DHT22;4779;48.062;11.672;2023-05-10T13:23:25;13.90;99.90
9482;DHT22;4779;48.062;11.672;2023-05-10T13:25:52;14.00;99.90
9482;DHT22;4779;48.062;11.672;2023-05-10T13:28:19;14.00;99.90
9482;DHT22;4779;48.062;11.672;2023-05-10T13:30:47;14.00;99.90
9482;DHT22;4779;48.062;11.672;2023-05-10T13:33:14;13.90;99.90
9482;DHT22;4779;48.062;11.672;2023-05-10T13:35:40;13.80;99.90
9482;DHT22;4779;48.062;11.672;2023-05-10T13:38:07;13.90;99.90
9482;DHT22;4779;48.062;11.672;2023-05-10T13:40:34;13.80;99.90
9482;DHT22;4779;48.062;11.672;2023-05-10T13:43:01;13.70;99.90
9482;DHT22;4779;48.062;11.672;2023-05-10T13:45:28;13.60;99.90
9482;DHT22;4779;48.062;11.672;2023-05-10T13:47:56;13.60;99.90
9482;DHT22;4779;48.062;11.672;2023-05-10T13:50:23;13.70;99.90
9482;DHT22;4779;48.062;11.672;2023-05-10T13:52:51;13.70;99.90
9482;DHT22;4779;48.062;11.672;2023-05-10T13:55:19;13.80;99.90
9482;DHT22;4779;48.062;11.672;2023-05-10T13:57:47;13.70;99.90
9482;DHT22;4779;48.062;11.672;2023-05-10T14:00:15;13.60;99.90
9482;DHT22;4779;48.062;11.672;2023-05-10T14:02:42;13.60;99.90
9482;DHT22;4779;48.062;11.672;2023-05-10T14:05:10;13.60;99.90
9482;DHT22;4779;48.062;11.672;2023-05-10T14:07:37;13.60;99.90
9482;DHT22;4779;48.062;11.672;2023-05-10T14:10:05;13.60;99.90
9482;DHT22;4779;48.062;11.672;2023-05-10T14:12:32;13.50;99.90
9482;DHT22;4779;48.062;11.672;2023-05-10T14:14:59;13.60;99.90
9482;DHT22;4779;48.062;11.672;2023-05-10T14:17:26;13.50;99.90
9482;DHT22;4779;48.062;11.672;2023-05-10T14:19:53;13.50;99.90
9482;DHT22;4779;48.062;11.672;2023-05-10T14:22:21;13.60;99.90
9482;DHT22;4779;48.062;11.672;2023-05-10T14:24:48;13.60;99.90
9482;DHT22;4779;48.062;11.672;2023-05-10T14:27:15;13.60;99.90
9482;DHT22;4779;48.062;11.672;2023-05-10T14:29:42;13.70;99.90
9482;DHT22;4779;48.062;11.672;2023-05-10T14:32:09;13.70;99.90
9482;DHT22;4779;48.062;11.672;2023-05-10T14:34:36;13.70;99.90
9482;DHT22;4779;48.062;11.672;2023-05-10T14:37:03;13.70;99.90
9482;DHT22;4779;48.062;11.672;2023-05-10T14:39:31;13.70;99.90
9482;DHT22;4779;48.062;11.672;2023-05-10T14:41:58;13.70;99.90
9482;DHT22;4779;48.062;11.672;2023-05-10T14:44:25;13.70;99.90
9482;DHT22;4779;48.062;11.672;2023-05-10T14:46:53;13.80;99.90
9482;DHT22;4779;48.062;11.672;2023-05-10T14:49:21;13.80;99.90
9482;DHT22;4779;48.062;11.672;2023-05-10T14:51:50;13.80;99.90
9482;DHT22;4779;48.062;11.672;2023-05-10T14:54:17;13.80;99.90
9482;DHT22;4779;48.062;11.672;2023-05-10T14:56:45;13.80;99.90
9482;DHT22;4779;48.062;11.672;2023-05-10T14:59:14;13.90;99.90
9482;DHT22;4779;48.062;11.672;2023-05-10T15:01:41;14.00;99.90
9482;DHT22;4779;48.062;11.672;2023-05-10T15:04:08;13.80;99.90
9482;DHT22;4779;48.062;11.672;2023-05-10T15:06:35;13.60;99.90
9482;DHT22;4779;48.062;11.672;2023-05-10T15:09:02;13.50;99.90
9482;DHT22;4779;48.062;11.672;2023-05-10T15:11:29;13.50;99.90
9482;DHT22;4779;48.062;11.672;2023-05-10T15:13:58;13.50;99.90
9482;DHT22;4779;48.062;11.672;2023-05-10T15:16:25;13.40;99.90
9482;DHT22;4779;48.062;11.672;2023-05-10T15:18:53;13.30;99.90
9482;DHT22;4779;48.062;11.672;2023-05-10T15:21:24;13.30;99.90
9482;DHT22;4779;48.062;11.672;2023-05-10T15:23:54;13.30;99.90
9482;DHT22;4779;48.062;11.672;2023-05-10T15:26:21;13.20;99.90
9482;DHT22;4779;48.062;11.672;2023-05-10T15:28:49;13.20;99.90
9482;DHT22;4779;48.062;11.672;2023-05-10T15:31:18;13.20;99.90
9482;DHT22;4779;48.062;11.672;2023-05-10T15:33:56;13.10;99.90
9482;DHT22;4779;48.062;11.672;2023-05-10T15:36:24;13.00;99.90
9482;DHT22;4779;48.062;11.672;2023-05-10T15:38:50;12.80;99.90
9482;DHT22;4779;48.062;11.672;2023-05-10T15:41:17;12.60;99.90
9482;DHT22;4779;48.062;11.672;2023-05-10T15:43:44;12.60;99.90
9482;DHT22;4779;48.062;11.672;2023-05-10T15:46:11;12.60;99.90
9482;DHT22;4779;48.062;11.672;2023-05-10T15:48:40;12.60;99.90
9482;DHT22;4779;48.062;11.672;2023-05-10T15:51:07;12.60;99.90
9482;DHT22;4779;48.062;11.672;2023-05-10T15:53:34;12.70;99.90
9482;DHT22;4779;48.062;11.672;2023-05-10T15:56:00;12.60;99.90
9482;DHT22;4779;48.062;11.672;2023-05-10T15:58:28;12.70;99.90
9482;DHT22;4779;48.062;11.672;2023-05-10T16:00:55;12.60;99.90
9482;DHT22;4779;48.062;11.672;2023-05-10T16:03:22;12.50;99.90
9482;DHT22;4779;48.062;11.672;2023-05-10T16:05:50;12.60;99.90
9482;DHT22;4779;48.062;11.672;2023-05-10T16:08:18;12.70;99.90
9482;DHT22;4779;48.062;11.672;2023-05-10T16:10:45;12.70;99.90